sensor_id;sensor_type;location;lat;lon;timestamp;P1;durP1;ratioP1;P2;durP2;ratioP2
22774;SDS011;11554;51.106;3.684;2023-02-23T00:00:00;58.90;;;31.50;;
22774;SDS011;11554;51.106;3.684;2023-02-23T00:05:00;58.40;;;30.50;;
22774;SDS011;11554;51.106;3.684;2023-02-23T00:10:00;58.40;;;30.50;;
22774;SDS011;11554;51.106;3.684;2023-02-23T00:15:00;59.70;;;30.70;;
22774;SDS011;11554;51.106;3.684;2023-02-23T00:20:00;59.70;;;30.70;;
22774;SDS011;11554;51.106;3.684;2023-02-23T00:25:00;62.10;;;32.30;;
22774;SDS011;11554;51.106;3.684;2023-02-23T00:30:00;62.10;;;32.30;;
22774;SDS011;11554;51.106;3.684;2023-02-23T00:35:00;58.80;;;31.70;;
22774;SDS011;11554;51.106;3.684;2023-02-23T00:40:00;58.80;;;31.70;;
22774;SDS011;11554;51.106;3.684;2023-02-23T00:45:00;62.20;;;31.60;;
22774;SDS011;11554;51.106;3.684;2023-02-23T00:50:00;62.20;;;31.60;;
22774;SDS011;11554;51.106;3.684;2023-02-23T00:55:00;62.60;;;33.20;;
22774;SDS011;11554;51.106;3.684;2023-02-23T01:00:00;62.60;;;33.20;;
22774;SDS011;11554;51.106;3.684;2023-02-23T01:05:00;61.20;;;31.60;;
22774;SDS011;11554;51.106;3.684;2023-02-23T01:10:00;61.20;;;31.60;;
22774;SDS011;11554;51.106;3.684;2023-02-23T01:15:00;63.60;;;32.10;;
22774;SDS011;11554;51.106;3.684;2023-02-23T01:20:00;63.60;;;32.10;;
22774;SDS011;11554;51.106;3.684;2023-02-23T01:25:00;64.60;;;33.40;;
22774;SDS011;11554;51.106;3.684;2023-02-23T01:30:00;64.60;;;33.40;;
22774;SDS011;11554;51.106;3.684;2023-02-23T01:35:00;62.10;;;32.50;;
22774;SDS011;11554;51.106;3.684;2023-02-23T01:40:00;62.10;;;32.50;;
22774;SDS011;11554;51.106;3.684;2023-02-23T01:45:17;61.70;;;31.80;;
22774;SDS011;11554;51.106;3.684;2023-02-23T01:50:00;61.70;;;31.80;;
22774;SDS011;11554;51.106;3.684;2023-02-23T01:55:00;58.50;;;31.90;;
22774;SDS011;11554;51.106;3.684;2023-02-23T02:00:00;58.50;;;31.90;;
22774;SDS011;11554;51.106;3.684;2023-02-23T02:05:02;59.80;;;31.90;;
22774;SDS011;11554;51.106;3.684;2023-02-23T02:10:00;59.80;;;31.90;;
22774;SDS011;11554;51.106;3.684;2023-02-23T02:15:02;63.50;;;32.90;;
22774;SDS011;11554;51.106;3.684;2023-02-23T02:20:16;63.50;;;32.90;;
22774;SDS011;11554;51.106;3.684;2023-02-23T02:25:16;65.40;;;33.70;;
22774;SDS011;11554;51.106;3.684;2023-02-23T02:40:07;65.80;;;33.40;;
22774;SDS011;11554;51.106;3.684;2023-02-23T02:45:05;60.50;;;32.70;;
22774;SDS011;11554;51.106;3.684;2023-02-23T02:50:04;60.50;;;32.70;;
22774;SDS011;11554;51.106;3.684;2023-02-23T02:55:06;57.60;;;30.90;;
22774;SDS011;11554;51.106;3.684;2023-02-23T03:00:00;57.60;;;30.90;;
22774;SDS011;11554;51.106;3.684;2023-02-23T03:05:00;49.10;;;28.50;;
22774;SDS011;11554;51.106;3.684;2023-02-23T03:10:03;49.10;;;28.50;;
22774;SDS011;11554;51.106;3.684;2023-02-23T03:15:09;57.80;;;31.10;;
22774;SDS011;11554;51.106;3.684;2023-02-23T03:20:07;57.80;;;31.10;;
22774;SDS011;11554;51.106;3.684;2023-02-23T03:25:05;60.50;;;32.60;;
22774;SDS011;11554;51.106;3.684;2023-02-23T03:30:03;60.50;;;32.60;;
22774;SDS011;11554;51.106;3.684;2023-02-23T03:35:04;55.30;;;29.00;;
22774;SDS011;11554;51.106;3.684;2023-02-23T03:40:06;55.30;;;29.00;;
22774;SDS011;11554;51.106;3.684;2023-02-23T03:45:05;57.80;;;30.60;;
22774;SDS011;11554;51.106;3.684;2023-02-23T03:50:05;57.80;;;30.60;;
22774;SDS011;11554;51.106;3.684;2023-02-23T03:55:03;53.10;;;28.70;;
22774;SDS011;11554;51.106;3.684;2023-02-23T04:00:03;53.10;;;28.70;;
22774;SDS011;11554;51.106;3.684;2023-02-23T04:05:04;56.20;;;29.90;;
22774;SDS011;11554;51.106;3.684;2023-02-23T04:10:01;56.20;;;29.90;;
22774;SDS011;11554;51.106;3.684;2023-02-23T04:15:04;57.50;;;30.90;;
22774;SDS011;11554;51.106;3.684;2023-02-23T04:20:00;57.50;;;30.90;;
22774;SDS011;11554;51.106;3.684;2023-02-23T04:25:00;60.40;;;31.50;;
22774;SDS011;11554;51.106;3.684;2023-02-23T04:30:00;60.40;;;31.50;;
22774;SDS011;11554;51.106;3.684;2023-02-23T04:35:00;54.50;;;30.20;;
22774;SDS011;11554;51.106;3.684;2023-02-23T04:40:00;54.50;;;30.20;;
22774;SDS011;11554;51.106;3.684;2023-02-23T04:45:00;55.30;;;30.70;;
22774;SDS011;11554;51.106;3.684;2023-02-23T04:50:00;55.30;;;30.70;;
22774;SDS011;11554;51.106;3.684;2023-02-23T04:55:00;67.80;;;33.70;;
22774;SDS011;11554;51.106;3.684;2023-02-23T05:00:00;67.80;;;33.70;;
22774;SDS011;11554;51.106;3.684;2023-02-23T05:05:00;71.70;;;35.60;;
22774;SDS011;11554;51.106;3.684;2023-02-23T05:10:00;71.70;;;35.60;;
22774;SDS011;11554;51.106;3.684;2023-02-23T05:15:00;62.90;;;33.30;;
22774;SDS011;11554;51.106;3.684;2023-02-23T05:20:00;62.90;;;33.30;;
22774;SDS011;11554;51.106;3.684;2023-02-23T05:25:00;54.40;;;30.60;;
22774;SDS011;11554;51.106;3.684;2023-02-23T05:30:00;54.40;;;30.60;;
22774;SDS011;11554;51.106;3.684;2023-02-23T05:35:00;51.80;;;28.70;;
22774;SDS011;11554;51.106;3.684;2023-02-23T05:40:00;51.80;;;28.70;;
22774;SDS011;11554;51.106;3.684;2023-02-23T05:45:00;53.00;;;29.40;;
22774;SDS011;11554;51.106;3.684;2023-02-23T05:50:00;53.00;;;29.40;;
22774;SDS011;11554;51.106;3.684;2023-02-23T05:55:00;53.30;;;30.40;;
22774;SDS011;11554;51.106;3.684;2023-02-23T06:00:00;53.30;;;30.40;;
22774;SDS011;11554;51.106;3.684;2023-02-23T06:05:00;60.60;;;32.60;;
22774;SDS011;11554;51.106;3.684;2023-02-23T06:10:00;60.60;;;32.60;;
22774;SDS011;11554;51.106;3.684;2023-02-23T06:15:00;63.10;;;34.50;;
22774;SDS011;11554;51.106;3.684;2023-02-23T06:20:00;63.10;;;34.50;;
22774;SDS011;11554;51.106;3.684;2023-02-23T06:25:00;65.00;;;33.80;;
22774;SDS011;11554;51.106;3.684;2023-02-23T06:30:00;65.00;;;33.80;;
22774;SDS011;11554;51.106;3.684;2023-02-23T06:35:00;57.10;;;32.30;;
22774;SDS011;11554;51.106;3.684;2023-02-23T06:40:00;57.10;;;32.30;;
22774;SDS011;11554;51.106;3.684;2023-02-23T06:45:00;67.50;;;35.00;;
22774;SDS011;11554;51.106;3.684;2023-02-23T06:50:00;67.50;;;35.00;;
22774;SDS011;11554;51.106;3.684;2023-02-23T06:55:00;68.00;;;35.30;;
22774;SDS011;11554;51.106;3.684;2023-02-23T07:00:00;68.00;;;35.30;;
22774;SDS011;11554;51.106;3.684;2023-02-23T07:05:00;73.90;;;36.70;;
22774;SDS011;11554;51.106;3.684;2023-02-23T07:10:00;73.90;;;36.70;;
22774;SDS011;11554;51.106;3.684;2023-02-23T07:15:00;71.40;;;36.50;;
22774;SDS011;11554;51.106;3.684;2023-02-23T07:20:00;71.40;;;36.50;;
22774;SDS011;11554;51.106;3.684;2023-02-23T07:25:00;72.20;;;37.40;;
22774;SDS011;11554;51.106;3.684;2023-02-23T07:30:00;72.20;;;37.40;;
22774;SDS011;11554;51.106;3.684;2023-02-23T07:35:00;69.30;;;36.40;;
22774;SDS011;11554;51.106;3.684;2023-02-23T07:40:00;69.30;;;36.40;;
22774;SDS011;11554;51.106;3.684;2023-02-23T07:45:00;63.70;;;33.20;;
22774;SDS011;11554;51.106;3.684;2023-02-23T07:50:00;63.70;;;33.20;;
22774;SDS011;11554;51.106;3.684;2023-02-23T07:55:00;65.00;;;34.40;;
22774;SDS011;11554;51.106;3.684;2023-02-23T08:00:00;65.00;;;34.40;;
22774;SDS011;11554;51.106;3.684;2023-02-23T08:05:00;69.10;;;35.70;;
22774;SDS011;11554;51.106;3.684;2023-02-23T08:10:00;77.90;;;41.00;;
22774;SDS011;11554;51.106;3.684;2023-02-23T08:15:00;77.90;;;41.00;;
22774;SDS011;11554;51.106;3.684;2023-02-23T08:20:00;84.50;;;41.40;;
22774;SDS011;11554;51.106;3.684;2023-02-23T08:25:00;84.50;;;41.40;;
22774;SDS011;11554;51.106;3.684;2023-02-23T08:30:00;87.10;;;41.20;;
22774;SDS011;11554;51.106;3.684;2023-02-23T08:35:00;87.10;;;41.20;;
22774;SDS011;11554;51.106;3.684;2023-02-23T08:40:00;100.60;;;44.90;;
22774;SDS011;11554;51.106;3.684;2023-02-23T08:45:00;100.60;;;44.90;;
22774;SDS011;11554;51.106;3.684;2023-02-23T08:50:00;103.60;;;45.50;;
22774;SDS011;11554;51.106;3.684;2023-02-23T08:55:00;103.60;;;45.50;;
22774;SDS011;11554;51.106;3.684;2023-02-23T09:00:00;94.60;;;41.40;;
22774;SDS011;11554;51.106;3.684;2023-02-23T09:05:00;94.60;;;41.40;;
22774;SDS011;11554;51.106;3.684;2023-02-23T09:10:00;89.00;;;38.50;;
22774;SDS011;11554;51.106;3.684;2023-02-23T09:15:00;89.00;;;38.50;;
22774;SDS011;11554;51.106;3.684;2023-02-23T09:20:00;86.10;;;36.10;;
22774;SDS011;11554;51.106;3.684;2023-02-23T09:25:00;86.10;;;36.10;;
22774;SDS011;11554;51.106;3.684;2023-02-23T09:30:00;84.60;;;36.20;;
22774;SDS011;11554;51.106;3.684;2023-02-23T09:35:00;84.60;;;36.20;;
22774;SDS011;11554;51.106;3.684;2023-02-23T09:40:00;92.10;;;38.20;;
22774;SDS011;11554;51.106;3.684;2023-02-23T09:45:08;92.10;;;38.20;;
22774;SDS011;11554;51.106;3.684;2023-02-23T09:50:04;89.80;;;39.20;;
22774;SDS011;11554;51.106;3.684;2023-02-23T09:55:00;89.80;;;39.20;;
22774;SDS011;11554;51.106;3.684;2023-02-23T10:00:00;85.00;;;38.50;;
22774;SDS011;11554;51.106;3.684;2023-02-23T10:05:03;85.00;;;38.50;;
22774;SDS011;11554;51.106;3.684;2023-02-23T10:10:05;94.10;;;40.90;;
22774;SDS011;11554;51.106;3.684;2023-02-23T10:15:08;94.10;;;40.90;;
22774;SDS011;11554;51.106;3.684;2023-02-23T10:20:05;87.50;;;40.00;;
22774;SDS011;11554;51.106;3.684;2023-02-23T10:25:05;87.50;;;40.00;;
22774;SDS011;11554;51.106;3.684;2023-02-23T10:30:01;77.00;;;35.50;;
22774;SDS011;11554;51.106;3.684;2023-02-23T10:35:00;77.00;;;35.50;;
22774;SDS011;11554;51.106;3.684;2023-02-23T10:40:01;76.20;;;36.90;;
22774;SDS011;11554;51.106;3.684;2023-02-23T10:45:00;76.20;;;36.90;;
22774;SDS011;11554;51.106;3.684;2023-02-23T10:50:02;73.90;;;37.10;;
22774;SDS011;11554;51.106;3.684;2023-02-23T10:55:04;73.90;;;37.10;;
22774;SDS011;11554;51.106;3.684;2023-02-23T11:05:00;68.40;;;36.10;;
22774;SDS011;11554;51.106;3.684;2023-02-23T11:15:20;65.80;;;35.30;;
22774;SDS011;11554;51.106;3.684;2023-02-23T11:20:04;68.60;;;35.70;;
22774;SDS011;11554;51.106;3.684;2023-02-23T11:25:02;68.60;;;35.70;;
22774;SDS011;11554;51.106;3.684;2023-02-23T11:30:04;69.10;;;35.40;;
22774;SDS011;11554;51.106;3.684;2023-02-23T11:35:11;69.10;;;35.40;;
22774;SDS011;11554;51.106;3.684;2023-02-23T11:40:16;62.70;;;32.60;;
22774;SDS011;11554;51.106;3.684;2023-02-23T11:45:04;62.70;;;32.60;;
22774;SDS011;11554;51.106;3.684;2023-02-23T11:50:02;54.90;;;28.80;;
22774;SDS011;11554;51.106;3.684;2023-02-23T11:55:04;54.90;;;28.80;;
22774;SDS011;11554;51.106;3.684;2023-02-23T12:00:07;52.30;;;28.80;;
22774;SDS011;11554;51.106;3.684;2023-02-23T12:05:04;52.30;;;28.80;;
22774;SDS011;11554;51.106;3.684;2023-02-23T12:10:09;50.60;;;27.20;;
22774;SDS011;11554;51.106;3.684;2023-02-23T12:15:04;50.60;;;27.20;;
22774;SDS011;11554;51.106;3.684;2023-02-23T12:20:04;49.10;;;26.60;;
22774;SDS011;11554;51.106;3.684;2023-02-23T12:25:02;49.10;;;26.60;;
22774;SDS011;11554;51.106;3.684;2023-02-23T12:30:07;42.10;;;24.90;;
22774;SDS011;11554;51.106;3.684;2023-02-23T12:35:03;42.10;;;24.90;;
22774;SDS011;11554;51.106;3.684;2023-02-23T12:40:10;41.00;;;23.20;;
22774;SDS011;11554;51.106;3.684;2023-02-23T12:45:03;41.00;;;23.20;;
22774;SDS011;11554;51.106;3.684;2023-02-23T12:50:03;34.50;;;21.50;;
22774;SDS011;11554;51.106;3.684;2023-02-23T12:55:00;34.50;;;21.50;;
22774;SDS011;11554;51.106;3.684;2023-02-23T13:00:14;36.40;;;21.60;;
22774;SDS011;11554;51.106;3.684;2023-02-23T13:05:12;36.40;;;21.60;;
22774;SDS011;11554;51.106;3.684;2023-02-23T13:10:08;30.70;;;18.40;;
22774;SDS011;11554;51.106;3.684;2023-02-23T13:15:07;30.70;;;18.40;;
22774;SDS011;11554;51.106;3.684;2023-02-23T13:20:03;31.00;;;16.80;;
22774;SDS011;11554;51.106;3.684;2023-02-23T13:25:02;31.00;;;16.80;;
22774;SDS011;11554;51.106;3.684;2023-02-23T13:30:00;28.90;;;17.50;;
22774;SDS011;11554;51.106;3.684;2023-02-23T13:35:02;28.90;;;17.50;;
22774;SDS011;11554;51.106;3.684;2023-02-23T13:40:13;27.60;;;16.40;;
22774;SDS011;11554;51.106;3.684;2023-02-23T13:45:15;27.60;;;16.40;;
22774;SDS011;11554;51.106;3.684;2023-02-23T13:50:04;27.20;;;16.60;;
22774;SDS011;11554;51.106;3.684;2023-02-23T13:55:00;27.20;;;16.60;;
22774;SDS011;11554;51.106;3.684;2023-02-23T14:00:00;23.40;;;15.00;;
22774;SDS011;11554;51.106;3.684;2023-02-23T14:05:03;23.40;;;15.00;;
22774;SDS011;11554;51.106;3.684;2023-02-23T14:10:04;23.50;;;14.40;;
22774;SDS011;11554;51.106;3.684;2023-02-23T14:20:06;18.30;;;13.50;;
22774;SDS011;11554;51.106;3.684;2023-02-23T14:30:14;21.20;;;14.80;;
22774;SDS011;11554;51.106;3.684;2023-02-23T14:35:00;21.20;;;14.80;;
22774;SDS011;11554;51.106;3.684;2023-02-23T14:40:05;16.70;;;11.10;;
22774;SDS011;11554;51.106;3.684;2023-02-23T14:45:04;16.70;;;11.10;;
22774;SDS011;11554;51.106;3.684;2023-02-23T14:50:00;19.00;;;13.80;;
22774;SDS011;11554;51.106;3.684;2023-02-23T14:55:13;19.00;;;13.80;;
22774;SDS011;11554;51.106;3.684;2023-02-23T15:00:04;18.30;;;13.30;;
22774;SDS011;11554;51.106;3.684;2023-02-23T15:05:13;18.30;;;13.30;;
22774;SDS011;11554;51.106;3.684;2023-02-23T15:10:03;17.90;;;13.00;;
22774;SDS011;11554;51.106;3.684;2023-02-23T15:15:02;17.90;;;13.00;;
22774;SDS011;11554;51.106;3.684;2023-02-23T15:20:03;18.20;;;12.60;;
22774;SDS011;11554;51.106;3.684;2023-02-23T15:25:02;18.20;;;12.60;;
22774;SDS011;11554;51.106;3.684;2023-02-23T15:30:19;15.30;;;10.90;;
22774;SDS011;11554;51.106;3.684;2023-02-23T15:35:00;15.30;;;10.90;;
22774;SDS011;11554;51.106;3.684;2023-02-23T15:40:03;15.90;;;10.10;;
22774;SDS011;11554;51.106;3.684;2023-02-23T15:45:02;15.90;;;10.10;;
22774;SDS011;11554;51.106;3.684;2023-02-23T15:50:04;16.00;;;9.90;;
22774;SDS011;11554;51.106;3.684;2023-02-23T15:55:03;16.00;;;9.90;;
22774;SDS011;11554;51.106;3.684;2023-02-23T16:00:03;18.20;;;11.20;;
22774;SDS011;11554;51.106;3.684;2023-02-23T16:05:09;18.20;;;11.20;;
22774;SDS011;11554;51.106;3.684;2023-02-23T16:10:04;16.80;;;10.60;;
22774;SDS011;11554;51.106;3.684;2023-02-23T16:15:02;16.80;;;10.60;;
22774;SDS011;11554;51.106;3.684;2023-02-23T16:20:09;20.00;;;11.40;;
22774;SDS011;11554;51.106;3.684;2023-02-23T16:25:03;20.00;;;11.40;;
22774;SDS011;11554;51.106;3.684;2023-02-23T16:30:14;21.50;;;12.00;;
22774;SDS011;11554;51.106;3.684;2023-02-23T16:35:06;21.50;;;12.00;;
22774;SDS011;11554;51.106;3.684;2023-02-23T16:40:00;19.80;;;12.50;;
22774;SDS011;11554;51.106;3.684;2023-02-23T16:45:00;19.80;;;12.50;;
22774;SDS011;11554;51.106;3.684;2023-02-23T16:50:00;21.20;;;13.30;;
22774;SDS011;11554;51.106;3.684;2023-02-23T16:55:00;21.20;;;13.30;;
22774;SDS011;11554;51.106;3.684;2023-02-23T17:00:00;19.90;;;11.50;;
22774;SDS011;11554;51.106;3.684;2023-02-23T17:05:00;19.90;;;11.50;;
22774;SDS011;11554;51.106;3.684;2023-02-23T17:10:00;14.10;;;6.30;;
22774;SDS011;11554;51.106;3.684;2023-02-23T17:15:01;14.10;;;6.30;;
22774;SDS011;11554;51.106;3.684;2023-02-23T17:20:00;11.40;;;5.50;;
22774;SDS011;11554;51.106;3.684;2023-02-23T17:25:00;11.40;;;5.50;;
22774;SDS011;11554;51.106;3.684;2023-02-23T17:30:00;10.00;;;5.30;;
22774;SDS011;11554;51.106;3.684;2023-02-23T17:35:00;10.00;;;5.30;;
22774;SDS011;11554;51.106;3.684;2023-02-23T17:40:00;11.30;;;7.40;;
22774;SDS011;11554;51.106;3.684;2023-02-23T17:45:00;11.30;;;7.40;;
22774;SDS011;11554;51.106;3.684;2023-02-23T17:50:00;10.70;;;6.70;;
22774;SDS011;11554;51.106;3.684;2023-02-23T17:55:00;10.70;;;6.70;;
22774;SDS011;11554;51.106;3.684;2023-02-23T18:00:00;13.60;;;6.60;;
22774;SDS011;11554;51.106;3.684;2023-02-23T18:05:00;13.60;;;6.60;;
22774;SDS011;11554;51.106;3.684;2023-02-23T18:10:00;17.60;;;9.20;;
22774;SDS011;11554;51.106;3.684;2023-02-23T18:15:00;17.60;;;9.20;;
22774;SDS011;11554;51.106;3.684;2023-02-23T18:20:00;24.70;;;13.40;;
22774;SDS011;11554;51.106;3.684;2023-02-23T18:25:00;24.70;;;13.40;;
22774;SDS011;11554;51.106;3.684;2023-02-23T18:30:00;23.50;;;7.90;;
22774;SDS011;11554;51.106;3.684;2023-02-23T18:35:00;23.50;;;7.90;;
22774;SDS011;11554;51.106;3.684;2023-02-23T18:40:00;29.20;;;10.60;;
22774;SDS011;11554;51.106;3.684;2023-02-23T18:45:00;29.20;;;10.60;;
22774;SDS011;11554;51.106;3.684;2023-02-23T18:50:00;31.70;;;8.90;;
22774;SDS011;11554;51.106;3.684;2023-02-23T18:55:00;31.70;;;8.90;;
22774;SDS011;11554;51.106;3.684;2023-02-23T19:00:00;27.80;;;7.90;;
22774;SDS011;11554;51.106;3.684;2023-02-23T19:05:00;27.80;;;7.90;;
22774;SDS011;11554;51.106;3.684;2023-02-23T19:10:00;32.40;;;8.00;;
22774;SDS011;11554;51.106;3.684;2023-02-23T19:15:00;32.40;;;8.00;;
22774;SDS011;11554;51.106;3.684;2023-02-23T19:20:00;41.70;;;8.30;;
22774;SDS011;11554;51.106;3.684;2023-02-23T19:25:00;41.70;;;8.30;;
22774;SDS011;11554;51.106;3.684;2023-02-23T19:30:00;44.60;;;9.50;;
22774;SDS011;11554;51.106;3.684;2023-02-23T19:35:00;44.60;;;9.50;;
22774;SDS011;11554;51.106;3.684;2023-02-23T19:40:00;29.80;;;5.80;;
22774;SDS011;11554;51.106;3.684;2023-02-23T19:45:00;29.80;;;5.80;;
22774;SDS011;11554;51.106;3.684;2023-02-23T19:50:00;37.30;;;7.80;;
22774;SDS011;11554;51.106;3.684;2023-02-23T19:55:00;37.30;;;7.80;;
22774;SDS011;11554;51.106;3.684;2023-02-23T20:00:00;25.30;;;5.10;;
22774;SDS011;11554;51.106;3.684;2023-02-23T20:05:00;25.30;;;5.10;;
22774;SDS011;11554;51.106;3.684;2023-02-23T20:10:00;26.10;;;4.20;;
22774;SDS011;11554;51.106;3.684;2023-02-23T20:15:00;26.10;;;4.20;;
22774;SDS011;11554;51.106;3.684;2023-02-23T20:20:00;23.10;;;3.40;;
22774;SDS011;11554;51.106;3.684;2023-02-23T20:25:00;23.10;;;3.40;;
22774;SDS011;11554;51.106;3.684;2023-02-23T20:30:00;24.90;;;3.60;;
22774;SDS011;11554;51.106;3.684;2023-02-23T20:35:00;24.90;;;3.60;;
22774;SDS011;11554;51.106;3.684;2023-02-23T20:40:00;21.20;;;3.90;;
22774;SDS011;11554;51.106;3.684;2023-02-23T20:45:00;21.20;;;3.90;;
22774;SDS011;11554;51.106;3.684;2023-02-23T20:50:02;18.20;;;3.70;;
22774;SDS011;11554;51.106;3.684;2023-02-23T20:55:00;18.20;;;3.70;;
22774;SDS011;11554;51.106;3.684;2023-02-23T21:00:00;18.40;;;3.40;;
22774;SDS011;11554;51.106;3.684;2023-02-23T21:05:00;18.40;;;3.40;;
22774;SDS011;11554;51.106;3.684;2023-02-23T21:10:00;26.00;;;4.50;;
22774;SDS011;11554;51.106;3.684;2023-02-23T21:15:00;26.00;;;4.50;;
22774;SDS011;11554;51.106;3.684;2023-02-23T21:20:00;20.40;;;3.70;;
22774;SDS011;11554;51.106;3.684;2023-02-23T21:25:00;20.40;;;3.70;;
22774;SDS011;11554;51.106;3.684;2023-02-23T21:30:00;24.70;;;5.10;;
22774;SDS011;11554;51.106;3.684;2023-02-23T21:35:00;24.70;;;5.10;;
22774;SDS011;11554;51.106;3.684;2023-02-23T21:40:00;20.80;;;5.20;;
22774;SDS011;11554;51.106;3.684;2023-02-23T21:45:00;20.80;;;5.20;;
22774;SDS011;11554;51.106;3.684;2023-02-23T21:50:00;24.60;;;3.40;;
22774;SDS011;11554;51.106;3.684;2023-02-23T21:55:00;24.60;;;3.40;;
22774;SDS011;11554;51.106;3.684;2023-02-23T22:00:00;18.10;;;3.30;;
22774;SDS011;11554;51.106;3.684;2023-02-23T22:05:00;18.10;;;3.30;;
22774;SDS011;11554;51.106;3.684;2023-02-23T22:10:00;18.90;;;3.00;;
22774;SDS011;11554;51.106;3.684;2023-02-23T22:15:02;18.90;;;3.00;;
22774;SDS011;11554;51.106;3.684;2023-02-23T22:20:00;19.20;;;2.90;;
22774;SDS011;11554;51.106;3.684;2023-02-23T22:25:01;19.20;;;2.90;;
22774;SDS011;11554;51.106;3.684;2023-02-23T22:30:00;17.70;;;3.20;;
22774;SDS011;11554;51.106;3.684;2023-02-23T22:35:00;17.70;;;3.20;;
22774;SDS011;11554;51.106;3.684;2023-02-23T22:40:00;15.40;;;3.30;;
22774;SDS011;11554;51.106;3.684;2023-02-23T22:45:00;15.40;;;3.30;;
22774;SDS011;11554;51.106;3.684;2023-02-23T22:50:00;16.60;;;2.80;;
22774;SDS011;11554;51.106;3.684;2023-02-23T22:55:00;16.60;;;2.80;;
22774;SDS011;11554;51.106;3.684;2023-02-23T23:00:00;14.50;;;2.30;;
22774;SDS011;11554;51.106;3.684;2023-02-23T23:05:00;14.50;;;2.30;;
22774;SDS011;11554;51.106;3.684;2023-02-23T23:10:00;18.50;;;2.80;;
22774;SDS011;11554;51.106;3.684;2023-02-23T23:15:00;18.50;;;2.80;;
22774;SDS011;11554;51.106;3.684;2023-02-23T23:20:00;17.20;;;2.70;;
22774;SDS011;11554;51.106;3.684;2023-02-23T23:25:00;17.20;;;2.70;;
22774;SDS011;11554;51.106;3.684;2023-02-23T23:30:00;12.30;;;2.60;;
22774;SDS011;11554;51.106;3.684;2023-02-23T23:35:00;12.30;;;2.60;;
22774;SDS011;11554;51.106;3.684;2023-02-23T23:40:00;16.00;;;2.50;;
22774;SDS011;11554;51.106;3.684;2023-02-23T23:45:00;16.00;;;2.50;;
22774;SDS011;11554;51.106;3.684;2023-02-23T23:50:00;14.60;;;2.40;;
22774;SDS011;11554;51.106;3.684;2023-02-23T23:55:00;14.60;;;2.40;;
